Time;durP1;ratioP1;P1;durP2;ratioP2;P2;SDS_P1;SDS_P2;PMS_P1;PMS_P2;Temp;Humidity;BMP_temperature;BMP_pressure;BME280_temperature;BME280_humidity;BME280_pressure;Samples;Min_cycle;Max_cycle;Signal;HPM_P1;HPM_P2
2022/03/21 00:01:51;;;;;;;1999.90;999.90;;;;;;;1.76;28.48;103030.69;4938036;28;97051;-70
2022/03/21 00:04:19;;;;;;;1999.90;999.90;;;;;;;1.73;28.71;103025.16;4938571;28;97824;-70
2022/03/21 00:06:47;;;;;;;1999.90;999.90;;;;;;;1.71;29.01;103024.09;4944258;28;98968;-69
2022/03/21 00:09:15;;;;;;;1999.90;999.90;;;;;;;1.67;28.73;103018.44;4945566;28;97888;-69
2022/03/21 00:11:44;;;;;;;1999.90;999.90;;;;;;;1.64;29.17;103016.44;4942210;28;97874;-70
2022/03/21 00:14:12;;;;;;;1999.90;999.90;;;;;;;1.64;28.78;103021.69;4958996;28;97599;-70
2022/03/21 00:16:41;;;;;;;1999.90;999.90;;;;;;;1.61;28.72;103016.16;4944288;28;99472;-70
2022/03/21 00:19:09;;;;;;;1999.90;999.90;;;;;;;1.56;29.11;103014.78;4943537;28;99376;-70
2022/03/21 00:21:37;;;;;;;1999.90;999.90;;;;;;;1.54;29.34;103013.75;4944131;28;98358;-70
2022/03/21 00:24:06;;;;;;;1999.90;999.90;;;;;;;1.53;29.18;103016.22;4946777;28;97496;-70
2022/03/21 00:26:34;;;;;;;1999.90;999.90;;;;;;;1.50;28.65;103019.50;4947993;28;97902;-70
2022/03/21 00:29:09;;;;;;;1999.90;999.90;;;;;;;1.46;29.51;103014.75;4944987;28;99947;-69
2022/03/21 00:31:37;;;;;;;1999.90;999.90;;;;;;;1.44;28.77;103012.75;4943085;28;97763;-70
2022/03/21 00:34:05;;;;;;;1999.90;999.90;;;;;;;1.41;29.16;103016.03;4961706;28;96913;-70
2022/03/21 00:36:34;;;;;;;1999.90;999.90;;;;;;;1.37;29.54;103010.31;4942442;28;99235;-70
2022/03/21 00:39:15;;;;;;;1999.90;999.90;;;;;;;1.32;29.43;103004.66;4959904;28;98792;-70
2022/03/21 00:41:43;;;;;;;1999.90;999.90;;;;;;;1.30;29.56;103002.66;4945341;28;96769;-70
2022/03/21 00:44:12;;;;;;;1999.90;999.90;;;;;;;1.21;29.67;103002.75;4944225;28;98612;-69
2022/03/21 00:46:40;;;;;;;1999.90;999.90;;;;;;;1.15;29.61;103002.16;4943448;28;99622;-71
2022/03/21 00:49:11;;;;;;;1999.90;999.90;;;;;;;1.11;29.45;103008.81;4940324;28;97697;-70
2022/03/21 00:51:40;;;;;;;1999.90;999.90;;;;;;;1.10;29.69;103009.56;4936235;28;99321;-70
2022/03/21 00:54:08;;;;;;;1999.90;999.90;;;;;;;1.11;29.74;103013.13;4938219;28;97635;-70
2022/03/21 00:56:35;;;;;;;1999.90;999.90;;;;;;;1.11;29.75;103021.00;4942454;28;98376;-70
2022/03/21 00:59:04;;;;;;;1999.90;999.90;;;;;;;1.12;29.81;103020.22;4943271;28;98897;-70
2022/03/21 01:01:33;;;;;;;1999.90;999.90;;;;;;;1.09;29.59;103015.59;4942008;28;98396;-70
2022/03/21 01:16:55;;;;;;;1999.90;999.90;;;;;;;0.99;30.23;103011.97;4961886;28;97120;-70
2022/03/21 01:19:47;;;;;;;1999.90;999.90;;;;;;;0.99;30.25;103009.34;4960941;28;97265;-71
2022/03/21 01:22:33;;;;;;;1999.90;999.90;;;;;;;0.99;29.93;103014.59;4958724;28;98194;-70
2022/03/21 01:25:00;;;;;;;1999.90;999.90;;;;;;;0.99;29.98;103014.59;4943830;28;100054;-70
2022/03/21 01:27:29;;;;;;;1999.90;999.90;;;;;;;0.99;29.88;103017.22;4943854;28;97406;-70
2022/03/21 01:29:57;;;;;;;1999.90;999.90;;;;;;;0.97;30.07;103018.78;4960021;28;97545;-70
2022/03/21 01:32:26;;;;;;;1999.90;999.90;;;;;;;0.95;29.75;103009.84;4939950;28;98952;-70
2022/03/21 01:34:54;;;;;;;1999.90;999.90;;;;;;;0.93;30.44;103017.56;4944329;28;98857;-70
2022/03/21 01:37:21;;;;;;;1999.90;999.90;;;;;;;0.90;30.05;103006.78;4942440;28;97992;-70
2022/03/21 01:39:49;;;;;;;1999.90;999.90;;;;;;;0.90;30.48;103006.78;4945004;28;98523;-70
2022/03/21 01:42:17;;;;;;;1999.90;999.90;;;;;;;0.88;30.29;103007.41;4943447;28;97583;-70
2022/03/21 01:44:44;;;;;;;1999.90;999.90;;;;;;;0.86;30.69;103008.97;4942142;28;100084;-71
2022/03/21 01:47:13;;;;;;;1999.90;999.90;;;;;;;0.84;30.56;103005.28;4944317;28;98220;-70
2022/03/21 01:49:42;;;;;;;1999.90;999.90;;;;;;;0.84;30.54;103000.03;4945498;28;96942;-70
2022/03/21 01:52:09;;;;;;;1999.90;999.90;;;;;;;0.83;30.52;103008.69;4942320;28;98655;-70
2022/03/21 01:57:23;;;;;;;1999.90;999.90;;;;;;;0.79;30.47;103006.53;4944244;28;96870;-70
2022/03/21 01:59:51;;;;;;;1999.90;999.90;;;;;;;0.77;30.76;103009.03;4945512;28;97574;-70
2022/03/21 02:02:18;;;;;;;1999.90;999.90;;;;;;;0.74;30.62;103003.47;4942246;28;99005;-71
2022/03/21 02:04:48;;;;;;;1999.90;999.90;;;;;;;0.72;30.75;103007.63;4942162;28;97609;-70
2022/03/21 02:07:17;;;;;;;1999.90;999.90;;;;;;;0.71;30.60;103007.50;4940150;28;97580;-70
2022/03/21 02:09:45;;;;;;;1999.90;999.90;;;;;;;0.70;30.65;103008.28;4941314;28;97144;-69
2022/03/21 02:12:13;;;;;;;1999.90;999.90;;;;;;;0.65;30.85;103005.19;4940750;28;98433;-70
2022/03/21 02:14:41;;;;;;;1999.90;999.90;;;;;;;0.63;30.91;103003.22;4942953;28;98940;-70
2022/03/21 02:17:10;;;;;;;1999.90;999.90;;;;;;;0.61;31.01;103010.91;4943640;28;97533;-70
2022/03/21 02:19:39;;;;;;;1999.90;999.90;;;;;;;0.58;30.79;103001.84;4945181;28;96816;-70
2022/03/21 02:22:27;;;;;;;1999.90;999.90;;;;;;;0.49;31.07;102998.34;4942275;28;98816;-70
2022/03/21 02:25:04;;;;;;;1999.90;999.90;;;;;;;0.45;30.87;102993.59;4940935;28;98888;-69
2022/03/21 02:27:34;;;;;;;1999.90;999.90;;;;;;;0.43;31.01;102988.19;4942126;28;97242;-70
2022/03/21 02:30:03;;;;;;;1999.90;999.90;;;;;;;0.40;31.09;102989.59;4945824;28;97997;-71
2022/03/21 02:32:32;;;;;;;1999.90;999.90;;;;;;;0.37;30.97;102992.84;4941915;28;99557;-70
2022/03/21 02:35:00;;;;;;;1999.90;999.90;;;;;;;0.33;31.07;102989.78;4938686;28;98625;-70
2022/03/21 02:37:27;;;;;;;1999.90;999.90;;;;;;;0.27;31.28;102984.84;4941352;28;97828;-70
2022/03/21 02:39:56;;;;;;;1999.90;999.90;;;;;;;0.26;31.16;102992.56;4940484;28;98087;-70
2022/03/21 02:42:23;;;;;;;1999.90;999.90;;;;;;;0.19;31.26;102991.94;4942143;28;98989;-70
2022/03/21 02:44:52;;;;;;;1999.90;999.90;;;;;;;0.17;31.51;102992.56;4942621;28;97777;-70
2022/03/21 02:47:20;;;;;;;1999.90;999.90;;;;;;;0.12;31.29;102984.25;4942016;28;99703;-70
2022/03/21 02:49:49;;;;;;;1999.90;999.90;;;;;;;0.11;31.27;102987.66;4942730;28;97289;-70
2022/03/21 02:52:17;;;;;;;1999.90;999.90;;;;;;;0.10;31.40;102991.03;4924756;28;99873;-71
2022/03/21 02:54:45;;;;;;;1999.90;999.90;;;;;;;0.08;31.36;102989.06;4941581;28;99183;-69
2022/03/21 02:57:12;;;;;;;1999.90;999.90;;;;;;;0.05;31.07;102987.06;4942520;28;99329;-70
2022/03/21 02:59:40;;;;;;;1999.90;999.90;;;;;;;0.04;31.42;102993.06;4942325;28;99795;-70
2022/03/21 03:02:11;;;;;;;1999.90;999.90;;;;;;;0.03;31.49;102992.88;4940448;28;98905;-70
2022/03/21 03:04:39;;;;;;;1999.90;999.90;;;;;;;0.00;31.70;102996.16;4958406;28;99463;-69
2022/03/21 03:07:07;;;;;;;1999.90;999.90;;;;;;;-0.05;31.36;102994.78;4941984;28;97941;-70
2022/03/21 03:09:34;;;;;;;1999.90;999.90;;;;;;;-0.05;31.52;102991.22;4942504;28;97251;-70
2022/03/21 03:12:02;;;;;;;1999.90;999.90;;;;;;;-0.05;31.67;102989.53;4923105;28;100152;-70
2022/03/21 03:14:30;;;;;;;1999.90;999.90;;;;;;;-0.03;31.40;102995.81;4925849;28;98955;-70
2022/03/21 03:16:58;;;;;;;1999.90;999.90;;;;;;;-0.03;31.70;102985.34;4942608;28;97450;-70
2022/03/21 03:19:26;;;;;;;1999.90;999.90;;;;;;;-0.05;31.78;102993.84;4943745;28;100059;-70
2022/03/21 03:21:55;;;;;;;1999.90;999.90;;;;;;;-0.07;31.65;102985.84;4941963;28;97668;-71
2022/03/21 03:24:24;;;;;;;1999.90;999.90;;;;;;;-0.07;31.85;102985.84;4940185;28;100695;-70
2022/03/21 03:26:53;;;;;;;1999.90;999.90;;;;;;;-0.07;31.49;102990.16;4942987;28;98750;-71
2022/03/21 03:29:20;;;;;;;1999.90;999.90;;;;;;;-0.06;31.74;102994.59;4945029;28;97886;-71
2022/03/21 03:31:48;;;;;;;1999.90;999.90;;;;;;;-0.07;31.56;102992.78;4942414;28;97916;-70
2022/03/21 03:34:17;;;;;;;1999.90;999.90;;;;;;;-0.07;31.96;103000.63;4938031;28;101339;-70
2022/03/21 03:36:46;;;;;;;1999.90;999.90;;;;;;;-0.11;31.52;103002.00;4941695;28;97485;-70
2022/03/21 03:39:13;;;;;;;1999.90;999.90;;;;;;;-0.12;31.55;103005.38;4942530;28;98185;-70
2022/03/21 03:41:42;;;;;;;1999.90;999.90;;;;;;;-0.15;31.87;103002.47;4941351;28;97666;-70
2022/03/21 03:44:10;;;;;;;1999.90;999.90;;;;;;;-0.16;31.81;103003.25;4941592;28;96960;-71
2022/03/21 03:46:38;;;;;;;1999.90;999.90;;;;;;;-0.17;31.74;103011.88;4943313;28;97321;-70
2022/03/21 03:49:05;;;;;;;1999.90;999.90;;;;;;;-0.18;31.88;103015.28;4956044;28;96888;-69
2022/03/21 03:51:33;;;;;;;1999.90;999.90;;;;;;;-0.20;32.21;103006.34;4941272;28;97731;-70
2022/03/21 03:54:03;;;;;;;1999.90;999.90;;;;;;;-0.23;32.17;103007.72;4939003;28;99037;-70
2022/03/21 03:56:30;;;;;;;1999.90;999.90;;;;;;;-0.25;32.00;103006.66;4936854;28;98275;-70
2022/03/21 03:58:58;;;;;;;1999.90;999.90;;;;;;;-0.28;32.28;103004.63;4936778;28;98480;-69
2022/03/21 04:01:26;;;;;;;1999.90;999.90;;;;;;;-0.30;32.12;103003.56;4920226;28;99660;-70
2022/03/21 04:03:54;;;;;;;1999.90;999.90;;;;;;;-0.30;32.03;103006.19;4957410;28;98990;-70
2022/03/21 04:06:23;;;;;;;1999.90;999.90;;;;;;;-0.34;32.24;102998.81;4943078;28;97130;-70
2022/03/21 04:08:52;;;;;;;1999.90;999.90;;;;;;;-0.38;32.16;103011.41;4942433;28;97119;-70
2022/03/21 04:11:21;;;;;;;1999.90;999.90;;;;;;;-0.42;32.59;102997.13;4941087;28;97846;-70
2022/03/21 04:13:49;;;;;;;1999.90;999.90;;;;;;;-0.45;32.23;103004.66;4940002;28;98993;-71
2022/03/21 04:16:17;;;;;;;1999.90;999.90;;;;;;;-0.49;32.77;103012.03;4944028;28;97042;-71
2022/03/21 04:18:45;;;;;;;1999.90;999.90;;;;;;;-0.53;32.50;103010.81;4940064;28;97339;-70
2022/03/21 04:21:28;;;;;;;1999.90;999.90;;;;;;;-0.56;32.23;103007.88;4940899;28;98663;-69
2022/03/21 04:23:57;;;;;;;1999.90;999.90;;;;;;;-0.58;32.53;103009.44;4940888;28;98003;-70
2022/03/21 04:26:26;;;;;;;1999.90;999.90;;;;;;;-0.62;32.47;103004.66;4942019;28;97434;-70
2022/03/21 04:28:55;;;;;;;1999.90;999.90;;;;;;;-0.64;32.63;103011.41;4941421;28;97868;-70
2022/03/21 04:31:23;;;;;;;1999.90;999.90;;;;;;;-0.65;32.94;103019.09;4928397;28;100468;-73
2022/03/21 04:33:51;;;;;;;1999.90;999.90;;;;;;;-0.69;32.53;103023.09;4951890;28;97980;-70
2022/03/21 04:36:19;;;;;;;1999.90;999.90;;;;;;;-0.72;32.49;103028.00;4944724;28;97617;-70
2022/03/21 04:38:47;;;;;;;1999.90;999.90;;;;;;;-0.73;32.86;103020.94;4944887;28;96949;-71
2022/03/21 04:41:15;;;;;;;1999.90;999.90;;;;;;;-0.75;33.14;103017.22;4941214;28;100067;-70
2022/03/21 04:43:44;;;;;;;1999.90;999.90;;;;;;;-0.76;32.96;103019.69;4945319;28;98030;-70
2022/03/21 04:46:12;;;;;;;1999.90;999.90;;;;;;;-0.78;33.14;103016.00;4940817;28;97028;-70
2022/03/21 04:48:41;;;;;;;1999.90;999.90;;;;;;;-0.81;33.42;103027.06;4946073;28;97549;-70
2022/03/21 04:51:09;;;;;;;1999.90;999.90;;;;;;;-0.84;32.75;103031.97;4958708;28;99821;-71
2022/03/21 04:53:36;;;;;;;1999.90;999.90;;;;;;;-0.90;33.34;103031.34;4925734;28;100851;-69
2022/03/21 04:56:04;;;;;;;1999.90;999.90;;;;;;;-0.94;33.62;103023.97;4942777;28;97523;-69
2022/03/21 04:58:32;;;;;;;1999.90;999.90;;;;;;;-0.99;33.45;103038.25;4944295;28;97375;-70
2022/03/21 05:01:01;;;;;;;1999.90;999.90;;;;;;;-1.02;33.33;103035.31;4943005;28;98712;-70
2022/03/21 05:03:31;;;;;;;1999.90;999.90;;;;;;;-1.06;33.53;103039.31;4944758;28;99759;-70
2022/03/21 05:05:59;;;;;;;1999.90;999.90;;;;;;;-1.00;33.09;103044.25;4940497;28;97170;-70
2022/03/21 05:08:27;;;;;;;1999.90;999.90;;;;;;;-1.10;33.23;103041.44;4948053;28;97131;-70
2022/03/21 05:10:56;;;;;;;1999.90;999.90;;;;;;;-1.12;33.66;103048.19;4942226;28;97679;-70
2022/03/21 05:13:24;;;;;;;1999.90;999.90;;;;;;;-1.15;33.37;103048.81;4962229;28;99031;-70
2022/03/21 05:15:51;;;;;;;1999.90;999.90;;;;;;;-1.16;33.50;103056.50;4943766;28;99227;-70
2022/03/21 05:18:22;;;;;;;1999.90;999.90;;;;;;;-1.19;33.26;103050.94;4942613;28;98392;-70
2022/03/21 05:20:50;;;;;;;1999.90;999.90;;;;;;;-1.20;33.68;103051.72;4942233;28;99066;-70
2022/03/21 05:31:33;;;;;;;1999.90;999.90;;;;;;;-1.31;33.78;103050.59;4956849;28;99353;-69
2022/03/21 05:36:54;;;;;;;1999.90;999.90;;;;;;;-1.32;33.87;103056.56;4899575;28;98628;-70
2022/03/21 05:39:22;;;;;;;1999.90;999.90;;;;;;;-1.34;33.29;103054.56;4936512;28;99677;-70
2022/03/21 05:41:51;;;;;;;1999.90;999.90;;;;;;;-1.36;33.39;103063.94;4941133;28;98004;-70
2022/03/21 05:44:19;;;;;;;1999.90;999.90;;;;;;;-1.38;33.51;103058.56;4947702;28;97691;-71
2022/03/21 05:46:47;;;;;;;1999.90;999.90;;;;;;;-0.76;33.38;103064.13;4933657;28;97280;-70
2022/03/21 05:49:15;;;;;;;1999.90;999.90;;;;;;;-0.55;32.96;103063.69;4932797;28;97074;-71
2022/03/21 05:51:42;;;;;;;1999.90;999.90;;;;;;;-0.95;34.01;103063.94;4939427;28;97779;-72
2022/03/21 05:54:11;;;;;;;1999.90;999.90;;;;;;;-1.08;34.01;103061.75;4938542;28;100794;-70
2022/03/21 05:56:40;;;;;;;1999.90;999.90;;;;;;;-1.15;33.58;103068.78;4936795;28;98716;-71
2022/03/21 06:01:54;;;;;;;1999.90;999.90;;;;;;;-1.27;34.25;103067.50;4944232;28;98939;-71
2022/03/21 06:04:23;;;;;;;1999.90;999.90;;;;;;;-0.70;33.09;103068.28;4941536;28;98464;-71
2022/03/21 06:06:51;;;;;;;1999.90;999.90;;;;;;;-1.05;34.18;103067.28;4941114;28;96998;-71
2022/03/21 06:09:19;;;;;;;1999.90;999.90;;;;;;;-1.13;34.10;103078.63;4958572;28;98093;-71
2022/03/21 06:11:49;;;;;;;1999.90;999.90;;;;;;;-1.16;34.48;103082.63;4939361;28;97620;-71
2022/03/21 06:14:18;;;;;;;1999.90;999.90;;;;;;;-0.58;33.19;103089.56;4939017;28;98638;-70
2022/03/21 06:16:46;;;;;;;1999.90;999.90;;;;;;;-0.38;33.19;103080.38;4941650;28;97167;-71
2022/03/21 06:19:14;;;;;;;1999.90;999.90;;;;;;;-0.74;33.56;103088.75;4943856;28;98472;-71
2022/03/21 06:21:43;;;;;;;1999.90;999.90;;;;;;;-0.88;33.69;103079.47;4939735;28;98804;-71
2022/03/21 06:24:12;;;;;;;1999.90;999.90;;;;;;;-0.96;33.88;103078.66;4942286;28;101405;-72
2022/03/21 06:26:41;;;;;;;1999.90;999.90;;;;;;;-1.01;33.86;103086.81;4943898;28;96748;-71
2022/03/21 06:29:09;;;;;;;1999.90;999.90;;;;;;;-1.03;34.03;103083.13;4943327;28;97249;-72
2022/03/21 06:31:36;;;;;;;1999.90;999.90;;;;;;;-1.05;34.12;103088.19;4943713;28;99038;-71
2022/03/21 06:34:04;;;;;;;1999.90;999.90;;;;;;;-1.02;34.24;103092.81;4935155;28;100674;-71
2022/03/21 06:36:32;;;;;;;1999.90;999.90;;;;;;;-1.00;33.50;103091.28;4944009;28;97147;-72
2022/03/21 06:39:01;;;;;;;1999.90;999.90;;;;;;;-0.99;33.93;103093.13;4943128;28;97275;-71
2022/03/21 06:41:29;;;;;;;1999.90;999.90;;;;;;;-0.96;33.79;103099.56;4942894;28;97656;-71
2022/03/21 06:43:57;;;;;;;1999.90;999.90;;;;;;;-0.93;34.20;103094.69;4942633;28;97626;-72
2022/03/21 06:46:24;;;;;;;1999.90;999.90;;;;;;;-0.88;33.71;103097.75;4942533;28;97112;-72
2022/03/21 06:48:52;;;;;;;1999.90;999.90;;;;;;;-0.83;33.69;103096.59;4943644;28;96881;-71
2022/03/21 06:51:25;;;;;;;1999.90;999.90;;;;;;;-0.78;33.98;103097.03;4942108;28;99482;-72
2022/03/21 06:53:53;;;;;;;1999.90;999.90;;;;;;;-0.74;33.47;103097.53;4943843;28;97776;-72
2022/03/21 06:56:22;;;;;;;1999.90;999.90;;;;;;;-0.69;33.96;103100.59;4944148;28;96804;-71
2022/03/21 06:58:50;;;;;;;1999.90;999.90;;;;;;;-0.66;33.67;103101.84;4950486;28;96957;-71
2022/03/21 07:01:18;;;;;;;1999.90;999.90;;;;;;;-0.58;33.91;103106.19;4947294;28;98494;-71
2022/03/21 07:03:45;;;;;;;1999.90;999.90;;;;;;;-0.53;33.21;103104.00;4944150;28;97913;-71
2022/03/21 07:06:13;;;;;;;1999.90;999.90;;;;;;;-0.50;33.17;103112.19;4946196;28;97105;-72
2022/03/21 07:08:41;;;;;;;1999.90;999.90;;;;;;;-0.47;33.52;103110.81;4948978;28;96742;-71
2022/03/21 07:11:12;;;;;;;1999.90;999.90;;;;;;;-0.43;33.02;103102.47;4945815;28;99250;-72
2022/03/21 07:13:41;;;;;;;1999.90;999.90;;;;;;;-0.39;33.49;103102.03;4944037;28;99741;-72
2022/03/21 07:16:13;;;;;;;1999.90;999.90;;;;;;;-0.31;33.06;103102.81;4945435;28;97423;-71
2022/03/21 07:18:40;;;;;;;1999.90;999.90;;;;;;;-0.27;33.31;103105.91;4947208;28;96819;-71
2022/03/21 07:21:08;;;;;;;1999.90;999.90;;;;;;;-0.21;33.38;103105.63;4944565;28;97879;-71
2022/03/21 07:23:36;;;;;;;1999.90;999.90;;;;;;;-0.14;33.28;103118.53;4945670;28;99754;-71
2022/03/21 07:26:04;;;;;;;1999.90;999.90;;;;;;;-0.09;33.02;103113.00;4947671;28;97124;-71
2022/03/21 07:28:32;;;;;;;1999.90;999.90;;;;;;;-0.03;32.76;103112.69;4947227;28;97306;-72
2022/03/21 07:31:20;;;;;;;1999.90;999.90;;;;;;;0.03;32.74;103119.47;4941513;28;99846;-72
2022/03/21 07:33:48;;;;;;;1999.90;999.90;;;;;;;0.11;32.92;103121.16;4943490;28;98767;-71
2022/03/21 07:36:16;;;;;;;1999.90;999.90;;;;;;;0.19;32.90;103121.94;4945112;28;96894;-71
2022/03/21 07:38:44;;;;;;;1999.90;999.90;;;;;;;0.25;32.50;103119.94;4945611;28;98157;-71
2022/03/21 07:41:11;;;;;;;1999.90;999.90;;;;;;;0.33;32.55;103123.31;4943027;28;100388;-71
2022/03/21 07:43:39;;;;;;;1999.90;999.90;;;;;;;0.42;32.60;103126.84;4943986;28;98690;-71
2022/03/21 07:48:54;;;;;;;1999.90;999.90;;;;;;;0.54;32.46;103118.50;4944051;28;97123;-71
2022/03/21 07:51:21;;;;;;;1999.90;999.90;;;;;;;0.59;32.46;103111.13;4942965;28;99901;-71
2022/03/21 07:53:49;;;;;;;1999.90;999.90;;;;;;;0.64;32.35;103115.09;4944733;28;98002;-70
2022/03/21 07:56:23;;;;;;;1999.90;999.90;;;;;;;0.71;32.03;103125.41;4942866;28;97705;-71
2022/03/21 07:58:50;;;;;;;1999.90;999.90;;;;;;;0.76;31.99;103121.53;4945025;28;96829;-71
2022/03/21 08:01:19;;;;;;;1999.90;999.90;;;;;;;0.80;32.15;103126.31;4942128;28;99783;-72
2022/03/21 08:03:47;;;;;;;1999.90;999.90;;;;;;;0.83;31.98;103124.91;4960602;28;99243;-72
2022/03/21 08:06:16;;;;;;;1999.90;999.90;;;;;;;0.85;31.91;103117.22;4944994;28;97014;-72
2022/03/21 08:08:44;;;;;;;1999.90;999.90;;;;;;;0.89;31.81;103119.31;4948648;28;96814;-71
2022/03/21 08:11:11;;;;;;;1999.90;999.90;;;;;;;0.94;31.78;103112.84;4945139;28;100846;-72
2022/03/21 08:13:39;;;;;;;1999.90;999.90;;;;;;;0.96;32.32;103116.53;4947058;28;97854;-72
2022/03/21 08:16:07;;;;;;;1999.90;999.90;;;;;;;1.00;31.63;103116.03;4946888;28;97625;-72
2022/03/21 08:18:37;;;;;;;1999.90;999.90;;;;;;;1.05;31.63;103112.19;4963361;28;96937;-72
2022/03/21 08:21:05;;;;;;;1999.90;999.90;;;;;;;1.11;31.80;103118.00;4946560;28;99522;-72
2022/03/21 08:23:34;;;;;;;1999.90;999.90;;;;;;;1.15;31.58;103117.53;4947650;28;98922;-71
2022/03/21 08:26:02;;;;;;;1999.90;999.90;;;;;;;1.20;31.80;103118.88;4947873;28;97110;-71
2022/03/21 08:28:30;;;;;;;1999.90;999.90;;;;;;;1.26;31.47;103119.47;4930973;28;96989;-71
2022/03/21 08:30:57;;;;;;;1999.90;999.90;;;;;;;1.30;31.39;103121.63;4946507;28;97941;-71
2022/03/21 08:33:25;;;;;;;1999.90;999.90;;;;;;;1.39;31.23;103126.81;4946373;28;97693;-71
2022/03/21 08:35:53;;;;;;;1999.90;999.90;;;;;;;1.44;31.96;103115.06;4947442;28;97965;-71
2022/03/21 08:38:26;;;;;;;1999.90;999.90;;;;;;;1.51;31.50;103112.22;4946543;28;96816;-71
2022/03/21 08:40:57;;;;;;;1999.90;999.90;;;;;;;1.57;31.45;103116.38;4946948;28;98562;-71
2022/03/21 08:43:27;;;;;;;1999.90;999.90;;;;;;;1.64;30.89;103121.41;4945709;28;97925;-71
2022/03/21 08:45:55;;;;;;;1999.90;999.90;;;;;;;1.71;31.07;103115.03;4947001;28;98491;-72
2022/03/21 08:49:23;;;;;;;1999.90;999.90;;;;;;;1.77;31.42;103113.91;4947592;28;96876;-71
2022/03/21 08:51:10;;;;;;;1999.90;999.90;;;;;;;1.82;31.60;103107.38;4943649;28;98249;-71
2022/03/21 08:53:38;;;;;;;1999.90;999.90;;;;;;;1.89;31.06;103109.78;4947124;28;97581;-71
2022/03/21 08:56:07;;;;;;;1999.90;999.90;;;;;;;1.97;31.40;103105.25;4944554;28;97205;-71
2022/03/21 08:58:35;;;;;;;1999.90;999.90;;;;;;;2.04;30.76;103107.66;4946022;28;96986;-72
2022/03/21 09:01:03;;;;;;;1999.90;999.90;;;;;;;2.10;31.14;103109.22;4944902;28;98074;-71
2022/03/21 09:03:31;;;;;;;1999.90;999.90;;;;;;;2.16;30.91;103107.13;4945598;28;97571;-73
2022/03/21 09:05:59;;;;;;;1999.90;999.90;;;;;;;2.24;30.73;103099.03;4946170;28;96909;-70
2022/03/21 09:08:27;;;;;;;1999.90;999.90;;;;;;;2.30;30.62;103105.78;4946605;28;97814;-70
2022/03/21 09:10:55;;;;;;;1999.90;999.90;;;;;;;2.39;30.79;103096.09;4945086;28;98902;-71
2022/03/21 09:13:24;;;;;;;1999.90;999.90;;;;;;;2.46;30.57;103097.56;4945097;28;97675;-71
2022/03/21 09:15:52;;;;;;;1999.90;999.90;;;;;;;2.50;30.48;103097.06;4961051;28;97083;-71
2022/03/21 09:18:19;;;;;;;1999.90;999.90;;;;;;;2.56;31.07;103103.81;4945148;28;97306;-71
2022/03/21 09:20:48;;;;;;;1999.90;999.90;;;;;;;2.63;30.92;103103.56;4945569;28;99853;-71
2022/03/21 09:23:16;;;;;;;1999.90;999.90;;;;;;;2.70;30.47;103091.88;4945431;28;97805;-71
2022/03/21 09:25:43;;;;;;;1999.90;999.90;;;;;;;2.78;30.41;103098.75;4947411;28;99242;-71
2022/03/21 09:28:11;;;;;;;1999.90;999.90;;;;;;;2.82;30.05;103101.78;4946473;28;96789;-71
2022/03/21 09:30:40;;;;;;;1999.90;999.90;;;;;;;2.88;29.91;103090.88;4945396;28;99035;-71
2022/03/21 09:33:09;;;;;;;1999.90;999.90;;;;;;;2.93;29.93;103093.13;4945313;28;97639;-71
2022/03/21 09:35:37;;;;;;;1999.90;999.90;;;;;;;2.99;30.19;103090.13;4944425;28;97845;-71
2022/03/21 09:38:05;;;;;;;1999.90;999.90;;;;;;;3.05;30.65;103091.63;4947545;28;100238;-70
2022/03/21 09:40:33;;;;;;;1999.90;999.90;;;;;;;3.11;30.17;103091.22;4945251;28;97727;-71
2022/03/21 09:43:01;;;;;;;1999.90;999.90;;;;;;;3.16;30.04;103096.09;4943685;28;99003;-71
2022/03/21 09:45:29;;;;;;;1999.90;999.90;;;;;;;3.24;30.04;103088.84;4946855;28;97582;-71
2022/03/21 09:48:11;;;;;;;1999.90;999.90;;;;;;;3.29;30.06;103090.22;4943118;28;97653;-71
2022/03/21 09:50:42;;;;;;;1999.90;999.90;;;;;;;3.37;30.14;103082.97;4944043;28;100483;-71
2022/03/21 09:53:11;;;;;;;1999.90;999.90;;;;;;;3.43;29.73;103092.31;4944950;28;98577;-71
2022/03/21 09:55:40;;;;;;;1999.90;999.90;;;;;;;3.49;30.21;103082.31;4945665;28;96892;-71
2022/03/21 09:58:09;;;;;;;1999.90;999.90;;;;;;;3.54;30.03;103073.09;4946894;28;96829;-71
2022/03/21 10:00:37;;;;;;;1999.90;999.90;;;;;;;3.62;30.09;103081.66;4944212;28;99289;-71
2022/03/21 10:03:07;;;;;;;1999.90;999.90;;;;;;;3.64;29.63;103073.09;4944237;28;98124;-70
2022/03/21 10:05:37;;;;;;;1999.90;999.90;;;;;;;3.69;29.39;103071.81;4945838;28;97117;-71
2022/03/21 10:08:19;;;;;;;1999.90;999.90;;;;;;;3.75;29.43;103067.06;4945180;28;96962;-71
2022/03/21 10:10:57;;;;;;;1999.90;999.90;;;;;;;3.80;29.30;103078.00;4943298;28;98508;-71
2022/03/21 10:13:26;;;;;;;1999.90;999.90;;;;;;;3.84;29.64;103067.81;4960751;28;100731;-71
2022/03/21 10:16:09;;;;;;;1999.90;999.90;;;;;;;3.89;29.10;103071.81;4945722;28;97117;-71
2022/03/21 10:18:39;;;;;;;1999.90;999.90;;;;;;;3.95;29.27;103069.66;4945591;28;97370;-71
2022/03/21 10:21:11;;;;;;;1999.90;999.90;;;;;;;3.99;29.29;103065.56;4944918;28;99467;-70
2022/03/21 10:23:41;;;;;;;1999.90;999.90;;;;;;;4.04;29.33;103057.25;4945624;28;97840;-71
2022/03/21 10:26:28;;;;;;;1999.90;999.90;;;;;;;4.07;28.79;103056.59;4946422;28;97343;-71
2022/03/21 10:28:58;;;;;;;1999.90;999.90;;;;;;;4.13;29.37;103054.50;4944668;28;97568;-71
2022/03/21 10:31:40;;;;;;;1999.90;999.90;;;;;;;4.17;28.96;103054.84;4944009;28;99318;-71
2022/03/21 10:34:11;;;;;;;1999.90;999.90;;;;;;;4.27;29.56;103050.34;4942705;28;98696;-71
2022/03/21 10:37:00;;;;;;;1999.90;999.90;;;;;;;4.30;28.24;103055.88;4928852;28;96945;-71
2022/03/21 10:39:29;;;;;;;1999.90;999.90;;;;;;;4.37;29.20;103045.03;4945384;28;97182;-71
2022/03/21 10:41:58;;;;;;;1999.90;999.90;;;;;;;4.40;29.23;103038.31;4944589;28;99108;-71
2022/03/21 10:44:26;;;;;;;1999.90;999.90;;;;;;;4.46;29.08;103048.44;4944252;28;97430;-72
2022/03/21 10:46:55;;;;;;;1999.90;999.90;;;;;;;4.50;29.10;103037.34;4944510;28;96817;-71
2022/03/21 10:49:35;;;;;;;1999.90;999.90;;;;;;;4.54;28.49;103040.34;4945276;28;97556;-71
2022/03/21 10:52:05;;;;;;;1999.90;999.90;;;;;;;4.59;29.04;103041.63;4942430;28;100689;-71
2022/03/21 10:54:36;;;;;;;1999.90;999.90;;;;;;;4.66;29.08;103038.72;4944970;28;98661;-71
2022/03/21 10:57:05;;;;;;;1999.90;999.90;;;;;;;4.70;28.98;103040.78;4946002;28;96960;-71
2022/03/21 10:59:33;;;;;;;1999.90;999.90;;;;;;;4.76;29.44;103040.34;4945542;28;97116;-70
2022/03/21 11:02:10;;;;;;;1999.90;999.90;;;;;;;4.82;28.46;103035.59;4943892;28;97774;-71
2022/03/21 11:04:42;;;;;;;1999.90;999.90;;;;;;;4.88;28.73;103029.06;4959758;28;99445;-71
2022/03/21 11:07:12;;;;;;;1999.90;999.90;;;;;;;4.96;28.88;103038.53;4943794;28;97553;-71
2022/03/21 11:09:44;;;;;;;1999.90;999.90;;;;;;;5.02;28.77;103035.44;4942913;28;98143;-71
2022/03/21 11:12:12;;;;;;;1999.90;999.90;;;;;;;5.07;28.66;103028.84;4943040;28;97726;-71
2022/03/21 11:14:40;;;;;;;1999.90;999.90;;;;;;;5.13;28.65;103035.53;4943838;28;97618;-70
2022/03/21 11:17:08;;;;;;;1999.90;999.90;;;;;;;5.20;28.86;103031.66;4945124;28;97131;-70
2022/03/21 11:19:36;;;;;;;1999.90;999.90;;;;;;;5.27;28.49;103031.31;4944945;28;96826;-72
2022/03/21 11:22:06;;;;;;;1999.90;999.90;;;;;;;5.31;28.69;103029.84;4943315;28;98075;-71
2022/03/21 11:24:35;;;;;;;1999.90;999.90;;;;;;;5.35;28.63;103037.22;4942719;28;97757;-71
2022/03/21 11:27:20;;;;;;;1999.90;999.90;;;;;;;5.38;28.07;103030.44;4943948;28;97728;-70
2022/03/21 11:29:58;;;;;;;1999.90;999.90;;;;;;;5.44;27.85;103033.56;4945241;28;97636;-71
2022/03/21 11:32:33;;;;;;;1999.90;999.90;;;;;;;5.48;28.28;103019.81;4943226;28;98807;-71